Annette Island, AK

2:05 PM AKST on January 25, 2015 (GMT -0900)
Annette Island | Change Station
CLOSE
Current Station
Airport
Location: Annette Island,
Elevation: 112 ft
Nearby Weather Stations

Elev 112 ft 55.04 °N, 131.57 °W | Updated 12 minutes ago

Mostly Cloudy
Mostly Cloudy
46 °F
Feels Like 43 °F
N
6
Wind Variable Wind from SE

Today
High -- | Low -- °F
--% Chance of Precip.
Yesterday
High -- | Low -- °F
Precip. -- in
7:48 AM 4:08 PM
Waxing Crescent, 36% visible
Pressure 29.92 in
Visibility 10.0 miles
Clouds Mostly Cloudy 2000 ft
Mostly Cloudy 4500 ft
Mostly Cloudy 15000 ft
Windchill 43 °F
Dew Point 44 °F
Humidity 93%
Rainfall 0.06 in
Snow Depth Not available.
UV 0 out of 12
Pollen Not available.
Air Quality Not available.
Flu Activity Not available.
METAR PANT 252253Z 14005KT 10SM BKN020 BKN045 BKN150 08/07 A2992 RMK AO2 SLP132 T00780067

More Conditions Fewer Conditions

Pressure 29.92 in
Visibility 10.0 miles
Clouds Mostly Cloudy 2000 ft
Mostly Cloudy 4500 ft
Mostly Cloudy 15000 ft
Windchill 43 °F
Dew Point 44 °F
Humidity 93%
Rainfall 0.06 in
Snow Depth Not available.
UV 0 out of 12
Pollen Not available.
Air Quality Not available.
Flu Activity Not available.
METAR PANT 252253Z 14005KT 10SM BKN020 BKN045 BKN150 08/07 A2992 RMK AO2 SLP132 T00780067

More Conditions Fewer Conditions

10-Day Weather Forecast

Almanac

Astronomy

Jan. 25, 2015 Rise Set
Actual Time
Civil Twilight
Nautical Twilight
Astronomical Twilight
Moon
Length of Visible Light
Length of Day
Tomorrow will be .
, % of the Moon is Illuminated

Today's Extremes

State Highs State Lows

Community

WunderPhotos

Upload Photos

1,790,085 photos uploaded!

WunderBlogs® & News

Nearby

Air Quality

  Air Quality AQ Index Pollutant
Not available.

Snow Depth

Station Depth Elevation

Earthquake Activity

City Distance Mag. Time & Date
Minimum magnitude displayed is 2.5.

Coastal Water Temperatures

Place Temperature

Nearby Weather Stations